sensor_id;sensor_type;location;lat;lon;timestamp;pressure;altitude;pressure_sealevel;temperature
24740;BMP280;45234;48.148;17.128;2022-08-19T00:01:23;99373.50;;;25.98
24740;BMP280;45234;48.148;17.128;2022-08-19T00:04:01;99373.63;;;25.93
24740;BMP280;45234;48.148;17.128;2022-08-19T00:06:29;99367.09;;;25.91
24740;BMP280;45234;48.148;17.128;2022-08-19T00:08:57;99369.75;;;25.82
24740;BMP280;45234;48.148;17.128;2022-08-19T00:11:24;99365.25;;;25.74
24740;BMP280;45234;48.148;17.128;2022-08-19T00:13:53;99357.00;;;25.67
24740;BMP280;45234;48.148;17.128;2022-08-19T00:16:22;99352.94;;;25.61
24740;BMP280;45234;48.148;17.128;2022-08-19T00:18:55;99354.84;;;25.52
24740;BMP280;45234;48.148;17.128;2022-08-19T00:21:23;99347.34;;;25.45
24740;BMP280;45234;48.148;17.128;2022-08-19T00:23:50;99342.06;;;25.36
24740;BMP280;45234;48.148;17.128;2022-08-19T00:26:17;99338.78;;;25.31
24740;BMP280;45234;48.148;17.128;2022-08-19T00:28:44;99346.88;;;25.26
24740;BMP280;45234;48.148;17.128;2022-08-19T00:31:10;99345.16;;;25.21
24740;BMP280;45234;48.148;17.128;2022-08-19T00:33:38;99353.28;;;25.16
24740;BMP280;45234;48.148;17.128;2022-08-19T00:36:05;99353.59;;;25.15
24740;BMP280;45234;48.148;17.128;2022-08-19T00:38:33;99353.75;;;25.10
24740;BMP280;45234;48.148;17.128;2022-08-19T00:41:05;99349.88;;;25.07
24740;BMP280;45234;48.148;17.128;2022-08-19T00:43:32;99344.84;;;25.06
24740;BMP280;45234;48.148;17.128;2022-08-19T00:45:59;99356.69;;;25.00
24740;BMP280;45234;48.148;17.128;2022-08-19T00:48:26;99353.91;;;24.96
24740;BMP280;45234;48.148;17.128;2022-08-19T00:50:53;99355.13;;;24.90
24740;BMP280;45234;48.148;17.128;2022-08-19T00:53:21;99349.53;;;24.83
24740;BMP280;45234;48.148;17.128;2022-08-19T00:55:50;99360.13;;;24.83
24740;BMP280;45234;48.148;17.128;2022-08-19T00:58:19;99357.59;;;24.78
24740;BMP280;45234;48.148;17.128;2022-08-19T01:00:46;99363.53;;;24.75
24740;BMP280;45234;48.148;17.128;2022-08-19T01:03:15;99357.94;;;24.76
24740;BMP280;45234;48.148;17.128;2022-08-19T01:05:45;99361.00;;;24.70
24740;BMP280;45234;48.148;17.128;2022-08-19T01:08:13;99362.25;;;24.64
24740;BMP280;45234;48.148;17.128;2022-08-19T01:10:42;99365.03;;;24.59
24740;BMP280;45234;48.148;17.128;2022-08-19T01:13:10;99357.84;;;24.50
24740;BMP280;45234;48.148;17.128;2022-08-19T01:15:48;99360.97;;;24.52
24740;BMP280;45234;48.148;17.128;2022-08-19T01:18:17;99355.47;;;24.40
24740;BMP280;45234;48.148;17.128;2022-08-19T01:20:44;99351.72;;;24.41
24740;BMP280;45234;48.148;17.128;2022-08-19T01:23:12;99355.28;;;24.37
24740;BMP280;45234;48.148;17.128;2022-08-19T01:25:44;99354.66;;;24.31
24740;BMP280;45234;48.148;17.128;2022-08-19T01:28:30;99350.28;;;24.27
24740;BMP280;45234;48.148;17.128;2022-08-19T01:31:06;99343.53;;;24.21
24740;BMP280;45234;48.148;17.128;2022-08-19T01:33:34;99347.09;;;24.16
24740;BMP280;45234;48.148;17.128;2022-08-19T01:36:05;99344.28;;;24.13
24740;BMP280;45234;48.148;17.128;2022-08-19T01:38:34;99345.47;;;24.06
24740;BMP280;45234;48.148;17.128;2022-08-19T01:41:10;99341.50;;;24.09
24740;BMP280;45234;48.148;17.128;2022-08-19T01:43:38;99343.66;;;24.07
24740;BMP280;45234;48.148;17.128;2022-08-19T01:46:25;99351.28;;;24.08
24740;BMP280;45234;48.148;17.128;2022-08-19T01:48:52;99348.31;;;24.10
24740;BMP280;45234;48.148;17.128;2022-08-19T01:51:19;99341.16;;;24.10
24740;BMP280;45234;48.148;17.128;2022-08-19T01:53:49;99340.53;;;24.13
24740;BMP280;45234;48.148;17.128;2022-08-19T01:56:16;99345.84;;;24.13
24740;BMP280;45234;48.148;17.128;2022-08-19T01:58:49;99351.13;;;24.13
24740;BMP280;45234;48.148;17.128;2022-08-19T02:01:18;99348.19;;;24.15
24740;BMP280;45234;48.148;17.128;2022-08-19T02:03:45;99343.03;;;24.10
24740;BMP280;45234;48.148;17.128;2022-08-19T02:06:13;99349.75;;;24.16
24740;BMP280;45234;48.148;17.128;2022-08-19T02:08:40;99357.69;;;24.16
24740;BMP280;45234;48.148;17.128;2022-08-19T02:11:07;99358.19;;;24.18
24740;BMP280;45234;48.148;17.128;2022-08-19T02:13:34;99351.81;;;24.19
24740;BMP280;45234;48.148;17.128;2022-08-19T02:16:01;99360.22;;;24.21
24740;BMP280;45234;48.148;17.128;2022-08-19T02:18:30;99363.34;;;24.23
24740;BMP280;45234;48.148;17.128;2022-08-19T02:20:56;99360.09;;;24.26
24740;BMP280;45234;48.148;17.128;2022-08-19T02:23:24;99363.72;;;24.30
24740;BMP280;45234;48.148;17.128;2022-08-19T02:25:50;99369.63;;;24.36
24740;BMP280;45234;48.148;17.128;2022-08-19T02:28:17;99368.72;;;24.40
24740;BMP280;45234;48.148;17.128;2022-08-19T02:30:45;99364.38;;;24.44
24740;BMP280;45234;48.148;17.128;2022-08-19T02:33:12;99343.19;;;24.44
24740;BMP280;45234;48.148;17.128;2022-08-19T02:35:43;99341.63;;;24.43
24740;BMP280;45234;48.148;17.128;2022-08-19T02:38:10;99347.53;;;24.40
24740;BMP280;45234;48.148;17.128;2022-08-19T02:40:53;99345.34;;;24.42
24740;BMP280;45234;48.148;17.128;2022-08-19T02:43:22;99342.69;;;24.42
24740;BMP280;45234;48.148;17.128;2022-08-19T02:45:49;99349.56;;;24.43
24740;BMP280;45234;48.148;17.128;2022-08-19T02:48:20;99360.63;;;24.45
24740;BMP280;45234;48.148;17.128;2022-08-19T02:50:48;99359.53;;;24.46
24740;BMP280;45234;48.148;17.128;2022-08-19T02:53:21;99359.84;;;24.45
24740;BMP280;45234;48.148;17.128;2022-08-19T02:55:49;99360.00;;;24.48
24740;BMP280;45234;48.148;17.128;2022-08-19T02:58:17;99354.13;;;24.51
24740;BMP280;45234;48.148;17.128;2022-08-19T03:00:46;99358.00;;;24.54
24740;BMP280;45234;48.148;17.128;2022-08-19T03:03:13;99358.97;;;24.58
24740;BMP280;45234;48.148;17.128;2022-08-19T03:05:40;99359.25;;;24.57
24740;BMP280;45234;48.148;17.128;2022-08-19T03:08:23;99361.75;;;24.53
24740;BMP280;45234;48.148;17.128;2022-08-19T03:10:50;99366.25;;;24.52
24740;BMP280;45234;48.148;17.128;2022-08-19T03:13:19;99361.28;;;24.51
24740;BMP280;45234;48.148;17.128;2022-08-19T03:15:47;99360.00;;;24.48
24740;BMP280;45234;48.148;17.128;2022-08-19T03:18:14;99372.97;;;24.50
24740;BMP280;45234;48.148;17.128;2022-08-19T03:20:44;99366.25;;;24.52
24740;BMP280;45234;48.148;17.128;2022-08-19T03:23:11;99361.75;;;24.53
24740;BMP280;45234;48.148;17.128;2022-08-19T03:25:42;99370.94;;;24.55
24740;BMP280;45234;48.148;17.128;2022-08-19T03:28:11;99366.59;;;24.51
24740;BMP280;45234;48.148;17.128;2022-08-19T03:30:39;99374.69;;;24.54
24740;BMP280;45234;48.148;17.128;2022-08-19T03:33:09;99367.81;;;24.53
24740;BMP280;45234;48.148;17.128;2022-08-19T03:35:43;99364.72;;;24.51
24740;BMP280;45234;48.148;17.128;2022-08-19T03:38:11;99369.53;;;24.49
24740;BMP280;45234;48.148;17.128;2022-08-19T03:40:38;99368.09;;;24.43
24740;BMP280;45234;48.148;17.128;2022-08-19T03:43:05;99364.97;;;24.41
24740;BMP280;45234;48.148;17.128;2022-08-19T03:45:32;99370.88;;;24.38
24740;BMP280;45234;48.148;17.128;2022-08-19T03:47:59;99382.56;;;24.37
24740;BMP280;45234;48.148;17.128;2022-08-19T03:50:27;99377.75;;;24.39
24740;BMP280;45234;48.148;17.128;2022-08-19T03:52:54;99382.41;;;24.34
24740;BMP280;45234;48.148;17.128;2022-08-19T03:55:20;99382.72;;;24.32
24740;BMP280;45234;48.148;17.128;2022-08-19T03:57:48;99383.31;;;24.29
24740;BMP280;45234;48.148;17.128;2022-08-19T04:00:15;99385.19;;;24.29
24740;BMP280;45234;48.148;17.128;2022-08-19T04:02:42;99391.31;;;24.38
24740;BMP280;45234;48.148;17.128;2022-08-19T04:05:27;99379.75;;;24.34
24740;BMP280;45234;48.148;17.128;2022-08-19T04:07:55;99384.09;;;24.38
24740;BMP280;45234;48.148;17.128;2022-08-19T04:10:26;99379.91;;;24.37
24740;BMP280;45234;48.148;17.128;2022-08-19T04:12:54;99384.72;;;24.35
24740;BMP280;45234;48.148;17.128;2022-08-19T04:15:21;99393.03;;;24.42
24740;BMP280;45234;48.148;17.128;2022-08-19T04:17:48;99402.84;;;24.42
24740;BMP280;45234;48.148;17.128;2022-08-19T04:20:15;99402.84;;;24.42
24740;BMP280;45234;48.148;17.128;2022-08-19T04:22:42;99399.28;;;24.46
24740;BMP280;45234;48.148;17.128;2022-08-19T04:25:09;99392.31;;;24.50
24740;BMP280;45234;48.148;17.128;2022-08-19T04:27:36;99397.75;;;24.54
24740;BMP280;45234;48.148;17.128;2022-08-19T04:30:03;99393.69;;;24.57
24740;BMP280;45234;48.148;17.128;2022-08-19T04:32:30;99398.38;;;24.60
24740;BMP280;45234;48.148;17.128;2022-08-19T04:34:58;99397.78;;;24.63
24740;BMP280;45234;48.148;17.128;2022-08-19T04:37:43;99405.00;;;24.71
24740;BMP280;45234;48.148;17.128;2022-08-19T04:40:10;99410.28;;;24.71
24740;BMP280;45234;48.148;17.128;2022-08-19T04:42:55;99402.97;;;24.76
24740;BMP280;45234;48.148;17.128;2022-08-19T04:45:23;99398.59;;;24.80
24740;BMP280;45234;48.148;17.128;2022-08-19T04:47:54;99402.69;;;24.86
24740;BMP280;45234;48.148;17.128;2022-08-19T04:50:43;99408.94;;;24.99
24740;BMP280;45234;48.148;17.128;2022-08-19T04:53:10;99405.06;;;25.05
24740;BMP280;45234;48.148;17.128;2022-08-19T04:55:40;99397.94;;;25.14
24740;BMP280;45234;48.148;17.128;2022-08-19T04:58:07;99394.94;;;25.33
24740;BMP280;45234;48.148;17.128;2022-08-19T05:00:37;99393.69;;;25.39
24740;BMP280;45234;48.148;17.128;2022-08-19T05:03:04;99410.41;;;25.57
24740;BMP280;45234;48.148;17.128;2022-08-19T05:05:33;99416.97;;;25.68
24740;BMP280;45234;48.148;17.128;2022-08-19T05:08:12;99414.59;;;25.75
24740;BMP280;45234;48.148;17.128;2022-08-19T05:10:41;99406.44;;;25.89
24740;BMP280;45234;48.148;17.128;2022-08-19T05:13:08;99414.69;;;26.04
24740;BMP280;45234;48.148;17.128;2022-08-19T05:15:36;99415.13;;;26.15
24740;BMP280;45234;48.148;17.128;2022-08-19T05:18:03;99415.28;;;26.18
24740;BMP280;45234;48.148;17.128;2022-08-19T05:20:49;99419.78;;;26.26
24740;BMP280;45234;48.148;17.128;2022-08-19T05:23:34;99427.34;;;26.54
24740;BMP280;45234;48.148;17.128;2022-08-19T05:27:33;99430.25;;;26.61
24740;BMP280;45234;48.148;17.128;2022-08-19T05:30:01;99429.16;;;26.62
24740;BMP280;45234;48.148;17.128;2022-08-19T05:32:30;99423.50;;;26.72
24740;BMP280;45234;48.148;17.128;2022-08-19T05:34:57;99426.56;;;26.83
24740;BMP280;45234;48.148;17.128;2022-08-19T05:37:24;99423.91;;;27.03
24740;BMP280;45234;48.148;17.128;2022-08-19T05:39:53;99430.94;;;27.08
24740;BMP280;45234;48.148;17.128;2022-08-19T05:42:23;99420.22;;;27.16
24740;BMP280;45234;48.148;17.128;2022-08-19T05:44:50;99426.41;;;27.41
24740;BMP280;45234;48.148;17.128;2022-08-19T05:47:17;99428.31;;;27.41
24740;BMP280;45234;48.148;17.128;2022-08-19T05:49:46;99424.16;;;27.52
24740;BMP280;45234;48.148;17.128;2022-08-19T05:52:14;99424.47;;;27.83
24740;BMP280;45234;48.148;17.128;2022-08-19T05:54:44;99439.63;;;28.28
24740;BMP280;45234;48.148;17.128;2022-08-19T05:57:20;99452.28;;;28.43
24740;BMP280;45234;48.148;17.128;2022-08-19T05:59:47;99458.50;;;28.71
24740;BMP280;45234;48.148;17.128;2022-08-19T06:02:24;99466.88;;;29.10
24740;BMP280;45234;48.148;17.128;2022-08-19T06:04:51;99475.97;;;29.21
24740;BMP280;45234;48.148;17.128;2022-08-19T06:07:18;99483.69;;;29.10
24740;BMP280;45234;48.148;17.128;2022-08-19T06:09:46;99489.00;;;29.10
24740;BMP280;45234;48.148;17.128;2022-08-19T06:12:24;99495.13;;;29.11
24740;BMP280;45234;48.148;17.128;2022-08-19T06:14:55;99490.41;;;29.20
24740;BMP280;45234;48.148;17.128;2022-08-19T06:17:29;99497.09;;;29.26
24740;BMP280;45234;48.148;17.128;2022-08-19T06:19:58;99508.22;;;29.28
24740;BMP280;45234;48.148;17.128;2022-08-19T06:22:26;99510.69;;;29.09
24740;BMP280;45234;48.148;17.128;2022-08-19T06:24:53;99507.47;;;29.15
24740;BMP280;45234;48.148;17.128;2022-08-19T06:27:21;99508.25;;;28.91
24740;BMP280;45234;48.148;17.128;2022-08-19T06:29:47;99519.28;;;28.90
24740;BMP280;45234;48.148;17.128;2022-08-19T06:32:15;99518.06;;;28.75
24740;BMP280;45234;48.148;17.128;2022-08-19T06:34:43;99529.41;;;28.72
24740;BMP280;45234;48.148;17.128;2022-08-19T06:37:10;99532.63;;;28.66
24740;BMP280;45234;48.148;17.128;2022-08-19T06:39:38;99524.19;;;28.76
24740;BMP280;45234;48.148;17.128;2022-08-19T06:42:06;99530.25;;;29.13
24740;BMP280;45234;48.148;17.128;2022-08-19T06:44:37;99526.19;;;29.43
24740;BMP280;45234;48.148;17.128;2022-08-19T06:47:10;99531.72;;;29.50
24740;BMP280;45234;48.148;17.128;2022-08-19T06:49:40;99527.00;;;29.59
24740;BMP280;45234;48.148;17.128;2022-08-19T06:52:08;99541.72;;;29.53
24740;BMP280;45234;48.148;17.128;2022-08-19T06:54:40;99539.09;;;29.41
24740;BMP280;45234;48.148;17.128;2022-08-19T06:57:23;99539.75;;;29.38
24740;BMP280;45234;48.148;17.128;2022-08-19T06:59:50;99540.66;;;29.42
24740;BMP280;45234;48.148;17.128;2022-08-19T07:02:17;99529.75;;;29.35
24740;BMP280;45234;48.148;17.128;2022-08-19T07:04:49;99530.66;;;29.39
24740;BMP280;45234;48.148;17.128;2022-08-19T07:07:18;99543.09;;;29.35
24740;BMP280;45234;48.148;17.128;2022-08-19T07:09:48;99547.09;;;29.41
24740;BMP280;45234;48.148;17.128;2022-08-19T07:12:26;99533.94;;;29.76
24740;BMP280;45234;48.148;17.128;2022-08-19T07:14:55;99530.41;;;29.87
24740;BMP280;45234;48.148;17.128;2022-08-19T07:17:23;99528.81;;;29.83
24740;BMP280;45234;48.148;17.128;2022-08-19T07:19:51;99528.50;;;29.72
24740;BMP280;45234;48.148;17.128;2022-08-19T07:22:20;99535.50;;;29.49
24740;BMP280;45234;48.148;17.128;2022-08-19T07:24:50;99533.53;;;29.34
24740;BMP280;45234;48.148;17.128;2022-08-19T07:27:18;99538.88;;;29.34
24740;BMP280;45234;48.148;17.128;2022-08-19T07:29:51;99537.75;;;29.47
24740;BMP280;45234;48.148;17.128;2022-08-19T07:32:23;99527.75;;;29.72
24740;BMP280;45234;48.148;17.128;2022-08-19T07:34:53;99532.78;;;30.05
24740;BMP280;45234;48.148;17.128;2022-08-19T07:37:22;99524.97;;;30.43
24740;BMP280;45234;48.148;17.128;2022-08-19T07:39:49;99530.03;;;30.64
24740;BMP280;45234;48.148;17.128;2022-08-19T07:42:16;99525.59;;;30.87
24740;BMP280;45234;48.148;17.128;2022-08-19T07:44:44;99524.16;;;30.93
24740;BMP280;45234;48.148;17.128;2022-08-19T07:47:17;99536.31;;;31.06
24740;BMP280;45234;48.148;17.128;2022-08-19T07:50:06;99521.63;;;31.16
24740;BMP280;45234;48.148;17.128;2022-08-19T07:52:34;99513.50;;;30.77
24740;BMP280;45234;48.148;17.128;2022-08-19T07:55:03;99502.25;;;30.53
24740;BMP280;45234;48.148;17.128;2022-08-19T07:57:30;99505.63;;;30.65
24740;BMP280;45234;48.148;17.128;2022-08-19T07:59:58;99496.88;;;30.68
24740;BMP280;45234;48.148;17.128;2022-08-19T08:02:25;99493.66;;;30.78
24740;BMP280;45234;48.148;17.128;2022-08-19T08:04:52;99495.97;;;31.15
24740;BMP280;45234;48.148;17.128;2022-08-19T08:07:39;99489.25;;;31.44
24740;BMP280;45234;48.148;17.128;2022-08-19T08:10:25;99480.56;;;31.31
24740;BMP280;45234;48.148;17.128;2022-08-19T08:12:52;99476.41;;;31.75
24740;BMP280;45234;48.148;17.128;2022-08-19T08:15:36;99459.38;;;31.64
24740;BMP280;45234;48.148;17.128;2022-08-19T08:18:09;99454.34;;;31.85
24740;BMP280;45234;48.148;17.128;2022-08-19T08:20:36;99452.69;;;31.77
24740;BMP280;45234;48.148;17.128;2022-08-19T08:23:03;99463.81;;;31.57
24740;BMP280;45234;48.148;17.128;2022-08-19T08:25:49;99458.91;;;31.81
24740;BMP280;45234;48.148;17.128;2022-08-19T08:28:16;99454.22;;;32.24
24740;BMP280;45234;48.148;17.128;2022-08-19T08:30:44;99458.88;;;32.30
24740;BMP280;45234;48.148;17.128;2022-08-19T08:33:20;99459.13;;;32.48
24740;BMP280;45234;48.148;17.128;2022-08-19T08:36:09;99458.47;;;32.28
24740;BMP280;45234;48.148;17.128;2022-08-19T08:38:37;99464.06;;;32.43
24740;BMP280;45234;48.148;17.128;2022-08-19T08:43:39;99470.03;;;32.62
24740;BMP280;45234;48.148;17.128;2022-08-19T08:46:12;99470.00;;;32.59
24740;BMP280;45234;48.148;17.128;2022-08-19T08:51:36;99488.13;;;32.99
24740;BMP280;45234;48.148;17.128;2022-08-19T08:54:05;99483.91;;;33.31
24740;BMP280;45234;48.148;17.128;2022-08-19T08:56:37;99484.09;;;33.56
24740;BMP280;45234;48.148;17.128;2022-08-19T08:59:07;99481.09;;;33.61
24740;BMP280;45234;48.148;17.128;2022-08-19T09:01:36;99483.88;;;33.71
24740;BMP280;45234;48.148;17.128;2022-08-19T09:04:06;99481.28;;;33.82
24740;BMP280;45234;48.148;17.128;2022-08-19T09:06:44;99481.56;;;33.73
24740;BMP280;45234;48.148;17.128;2022-08-19T09:14:57;99486.09;;;33.22
24740;BMP280;45234;48.148;17.128;2022-08-19T09:17:29;99485.03;;;33.30
24740;BMP280;45234;48.148;17.128;2022-08-19T09:22:35;99477.53;;;33.97
24740;BMP280;45234;48.148;17.128;2022-08-19T09:25:03;99493.09;;;34.25
24740;BMP280;45234;48.148;17.128;2022-08-19T09:27:31;99488.50;;;34.29
24740;BMP280;45234;48.148;17.128;2022-08-19T09:30:20;99487.00;;;34.35
24740;BMP280;45234;48.148;17.128;2022-08-19T09:32:48;99489.69;;;34.31
24740;BMP280;45234;48.148;17.128;2022-08-19T09:35:23;99478.81;;;34.14
24740;BMP280;45234;48.148;17.128;2022-08-19T09:37:50;99470.78;;;34.21
24740;BMP280;45234;48.148;17.128;2022-08-19T09:40:26;99465.44;;;34.28
24740;BMP280;45234;48.148;17.128;2022-08-19T09:42:56;99467.13;;;34.57
24740;BMP280;45234;48.148;17.128;2022-08-19T09:45:24;99470.28;;;34.80
24740;BMP280;45234;48.148;17.128;2022-08-19T09:47:51;99468.38;;;34.91
24740;BMP280;45234;48.148;17.128;2022-08-19T09:50:20;99465.31;;;35.04
24740;BMP280;45234;48.148;17.128;2022-08-19T09:52:48;99457.28;;;35.07
24740;BMP280;45234;48.148;17.128;2022-08-19T09:55:23;99458.03;;;34.97
24740;BMP280;45234;48.148;17.128;2022-08-19T09:57:56;99445.28;;;34.94
24740;BMP280;45234;48.148;17.128;2022-08-19T10:00:24;99453.78;;;35.00
24740;BMP280;45234;48.148;17.128;2022-08-19T10:02:51;99454.16;;;34.94
24740;BMP280;45234;48.148;17.128;2022-08-19T10:05:18;99455.69;;;34.85
24740;BMP280;45234;48.148;17.128;2022-08-19T10:08:08;99455.63;;;34.67
24740;BMP280;45234;48.148;17.128;2022-08-19T10:10:40;99456.72;;;34.52
24740;BMP280;45234;48.148;17.128;2022-08-19T10:13:13;99464.34;;;34.36
24740;BMP280;45234;48.148;17.128;2022-08-19T10:15:40;99460.78;;;34.18
24740;BMP280;45234;48.148;17.128;2022-08-19T10:18:13;99463.13;;;34.23
24740;BMP280;45234;48.148;17.128;2022-08-19T10:20:40;99470.72;;;34.14
24740;BMP280;45234;48.148;17.128;2022-08-19T10:23:09;99475.28;;;34.06
24740;BMP280;45234;48.148;17.128;2022-08-19T10:25:36;99473.63;;;33.87
24740;BMP280;45234;48.148;17.128;2022-08-19T10:28:04;99474.38;;;33.84
24740;BMP280;45234;48.148;17.128;2022-08-19T10:30:36;99470.53;;;33.82
24740;BMP280;45234;48.148;17.128;2022-08-19T10:33:03;99476.28;;;33.84
24740;BMP280;45234;48.148;17.128;2022-08-19T10:35:37;99472.53;;;33.92
24740;BMP280;45234;48.148;17.128;2022-08-19T10:38:22;99481.75;;;33.95
24740;BMP280;45234;48.148;17.128;2022-08-19T10:41:06;99479.00;;;33.87
24740;BMP280;45234;48.148;17.128;2022-08-19T10:43:33;99477.00;;;33.77
24740;BMP280;45234;48.148;17.128;2022-08-19T10:46:04;99484.69;;;33.75
24740;BMP280;45234;48.148;17.128;2022-08-19T10:48:40;99480.47;;;33.78
24740;BMP280;45234;48.148;17.128;2022-08-19T10:51:08;99487.81;;;33.84
24740;BMP280;45234;48.148;17.128;2022-08-19T10:53:54;99484.34;;;33.84
24740;BMP280;45234;48.148;17.128;2022-08-19T10:56:22;99502.72;;;33.75
24740;BMP280;45234;48.148;17.128;2022-08-19T10:59:07;99500.59;;;33.47
24740;BMP280;45234;48.148;17.128;2022-08-19T11:01:36;99497.22;;;33.20
24740;BMP280;45234;48.148;17.128;2022-08-19T11:04:03;99507.34;;;33.01
24740;BMP280;45234;48.148;17.128;2022-08-19T11:06:31;99508.00;;;32.91
24740;BMP280;45234;48.148;17.128;2022-08-19T11:08:58;99506.34;;;32.82
24740;BMP280;45234;48.148;17.128;2022-08-19T11:11:27;99495.25;;;32.84
24740;BMP280;45234;48.148;17.128;2022-08-19T11:13:55;99499.28;;;33.01
24740;BMP280;45234;48.148;17.128;2022-08-19T11:16:23;99492.97;;;33.19
24740;BMP280;45234;48.148;17.128;2022-08-19T11:18:52;99493.50;;;33.35
24740;BMP280;45234;48.148;17.128;2022-08-19T11:21:24;99496.06;;;33.58
24740;BMP280;45234;48.148;17.128;2022-08-19T11:23:53;99500.13;;;33.89
24740;BMP280;45234;48.148;17.128;2022-08-19T11:26:20;99487.09;;;33.91
24740;BMP280;45234;48.148;17.128;2022-08-19T11:28:48;99489.03;;;33.94
24740;BMP280;45234;48.148;17.128;2022-08-19T11:31:19;99488.28;;;33.93
24740;BMP280;45234;48.148;17.128;2022-08-19T11:33:49;99472.91;;;33.90
24740;BMP280;45234;48.148;17.128;2022-08-19T11:36:21;99480.16;;;33.86
24740;BMP280;45234;48.148;17.128;2022-08-19T11:38:49;99487.38;;;33.75
24740;BMP280;45234;48.148;17.128;2022-08-19T11:41:16;99488.50;;;33.74
24740;BMP280;45234;48.148;17.128;2022-08-19T11:43:44;99487.34;;;33.72
24740;BMP280;45234;48.148;17.128;2022-08-19T11:46:12;99487.38;;;33.75
24740;BMP280;45234;48.148;17.128;2022-08-19T11:48:39;99492.69;;;33.68
24740;BMP280;45234;48.148;17.128;2022-08-19T11:51:08;99482.19;;;33.56
24740;BMP280;45234;48.148;17.128;2022-08-19T11:53:37;99477.16;;;33.48
24740;BMP280;45234;48.148;17.128;2022-08-19T11:56:04;99475.38;;;33.25
24740;BMP280;45234;48.148;17.128;2022-08-19T11:58:32;99487.50;;;33.12
24740;BMP280;45234;48.148;17.128;2022-08-19T12:00:58;99473.84;;;32.87
24740;BMP280;45234;48.148;17.128;2022-08-19T12:03:25;99463.56;;;32.63
24740;BMP280;45234;48.148;17.128;2022-08-19T12:05:53;99466.16;;;32.56
24740;BMP280;45234;48.148;17.128;2022-08-19T12:08:20;99463.59;;;32.40
24740;BMP280;45234;48.148;17.128;2022-08-19T12:10:47;99470.69;;;32.26
24740;BMP280;45234;48.148;17.128;2022-08-19T12:13:14;99489.94;;;32.09
24740;BMP280;45234;48.148;17.128;2022-08-19T12:15:45;99510.75;;;31.89
24740;BMP280;45234;48.148;17.128;2022-08-19T12:18:13;99528.31;;;31.67
24740;BMP280;45234;48.148;17.128;2022-08-19T12:20:42;99557.94;;;31.55
24740;BMP280;45234;48.148;17.128;2022-08-19T12:23:09;99554.59;;;31.39
24740;BMP280;45234;48.148;17.128;2022-08-19T12:25:37;99544.72;;;31.24
24740;BMP280;45234;48.148;17.128;2022-08-19T12:28:05;99532.63;;;31.14
24740;BMP280;45234;48.148;17.128;2022-08-19T12:30:32;99529.56;;;31.12
24740;BMP280;45234;48.148;17.128;2022-08-19T12:32:59;99521.03;;;31.07
24740;BMP280;45234;48.148;17.128;2022-08-19T12:35:26;99523.31;;;31.05
24740;BMP280;45234;48.148;17.128;2022-08-19T12:37:53;99529.75;;;31.04
24740;BMP280;45234;48.148;17.128;2022-08-19T12:40:23;99543.84;;;31.01
24740;BMP280;45234;48.148;17.128;2022-08-19T12:42:52;99550.13;;;31.08
24740;BMP280;45234;48.148;17.128;2022-08-19T12:45:19;99544.22;;;31.18
24740;BMP280;45234;48.148;17.128;2022-08-19T12:47:47;99539.91;;;31.33
24740;BMP280;45234;48.148;17.128;2022-08-19T12:50:15;99540.59;;;31.68
24740;BMP280;45234;48.148;17.128;2022-08-19T12:52:42;99534.41;;;32.10
24740;BMP280;45234;48.148;17.128;2022-08-19T12:55:09;99541.25;;;32.53
24740;BMP280;45234;48.148;17.128;2022-08-19T12:57:38;99521.97;;;32.73
24740;BMP280;45234;48.148;17.128;2022-08-19T13:00:07;99535.59;;;32.87
24740;BMP280;45234;48.148;17.128;2022-08-19T13:02:39;99542.53;;;32.92
24740;BMP280;45234;48.148;17.128;2022-08-19T13:05:08;99565.38;;;32.79
24740;BMP280;45234;48.148;17.128;2022-08-19T13:07:35;99561.84;;;32.49
24740;BMP280;45234;48.148;17.128;2022-08-19T13:10:05;99566.31;;;32.15
24740;BMP280;45234;48.148;17.128;2022-08-19T13:12:32;99562.34;;;31.86
24740;BMP280;45234;48.148;17.128;2022-08-19T13:14:59;99565.00;;;31.63
24740;BMP280;45234;48.148;17.128;2022-08-19T13:17:27;99552.31;;;31.41
24740;BMP280;45234;48.148;17.128;2022-08-19T13:19:54;99546.19;;;31.21
24740;BMP280;45234;48.148;17.128;2022-08-19T13:22:21;99534.41;;;31.07
24740;BMP280;45234;48.148;17.128;2022-08-19T13:24:48;99526.94;;;30.97
24740;BMP280;45234;48.148;17.128;2022-08-19T13:27:15;99530.22;;;30.90
24740;BMP280;45234;48.148;17.128;2022-08-19T13:29:42;99533.00;;;30.78
24740;BMP280;45234;48.148;17.128;2022-08-19T13:32:30;99539.25;;;30.66
24740;BMP280;45234;48.148;17.128;2022-08-19T13:35:16;99541.63;;;30.52
24740;BMP280;45234;48.148;17.128;2022-08-19T13:37:44;99551.03;;;30.46
24740;BMP280;45234;48.148;17.128;2022-08-19T13:40:13;99554.03;;;30.45
24740;BMP280;45234;48.148;17.128;2022-08-19T13:42:44;99561.53;;;30.39
24740;BMP280;45234;48.148;17.128;2022-08-19T13:45:14;99558.59;;;30.28
24740;BMP280;45234;48.148;17.128;2022-08-19T13:47:42;99563.34;;;30.04
24740;BMP280;45234;48.148;17.128;2022-08-19T13:50:12;99559.41;;;29.85
24740;BMP280;45234;48.148;17.128;2022-08-19T13:52:39;99546.88;;;29.74
24740;BMP280;45234;48.148;17.128;2022-08-19T13:55:06;99557.66;;;29.77
24740;BMP280;45234;48.148;17.128;2022-08-19T13:57:34;99551.66;;;29.80
24740;BMP280;45234;48.148;17.128;2022-08-19T14:00:02;99554.75;;;29.82
24740;BMP280;45234;48.148;17.128;2022-08-19T14:02:30;99550.31;;;29.74
24740;BMP280;45234;48.148;17.128;2022-08-19T14:04:57;99550.72;;;29.61
24740;BMP280;45234;48.148;17.128;2022-08-19T14:07:26;99531.28;;;29.48
24740;BMP280;45234;48.148;17.128;2022-08-19T14:09:53;99526.00;;;29.24
24740;BMP280;45234;48.148;17.128;2022-08-19T14:12:20;99497.06;;;28.86
24740;BMP280;45234;48.148;17.128;2022-08-19T14:14:54;99469.50;;;28.33
24740;BMP280;45234;48.148;17.128;2022-08-19T14:17:22;99448.22;;;27.88
24740;BMP280;45234;48.148;17.128;2022-08-19T14:19:49;99442.78;;;27.52
24740;BMP280;45234;48.148;17.128;2022-08-19T14:22:16;99406.66;;;27.30
24740;BMP280;45234;48.148;17.128;2022-08-19T14:24:48;99398.34;;;27.11
24740;BMP280;45234;48.148;17.128;2022-08-19T14:27:16;99383.22;;;27.03